Flight Track Log - Related Links

Times and Time Zones

All times are in EDT time to prevent confusion due to time zone crossing. See the N190ND flight status page for this flight to view local times or setup timezone preferences in your user account.

Time Position Orientation Groundspeed Altitude Reporting Facility
EDT Latitude Longitude Course Direction KTS MPH feet Rate Location/Type
Sat 02:42:50 PM 42.4667 -71.2500 36° Northeast 99 114 1,300  Level KA90
Sat 02:43:38 PM 42.4833 -71.2333 36° Northeast 102 117 2,000 789 Climbing KA90
Sat 02:44:44 PM 42.5167 -71.2167 20° North 110 127 2,800 750 Climbing KA90
Sat 02:45:38 PM 42.5333 -71.2000 36° Northeast 111 128 3,500 678 Climbing KA90
Sat 02:46:39 PM 42.5667 -71.1667 36° Northeast 120 138 4,100 298 Climbing KA90
Sat 02:47:39 PM 42.6167 -71.1500 14° North 147 169 4,100  Level KA90
Sat 02:48:39 PM 42.6500 -71.1333 20° North 151 174 4,100  Level KA90
Sat 02:49:33 PM 42.6833 -71.1000 36° Northeast 150 173 4,100  Level KA90
Sat 02:50:44 PM 42.7167 -71.0667 36° Northeast 145 167 4,100  Level KA90
Sat 02:51:45 PM 42.7500 -71.0500 20° North 143 165 4,100  Level KA90
Sat 02:52:45 PM 42.8000 -71.0167 26° Northeast 143 165 4,100  Level KA90
Sat 02:53:39 PM 42.8333 -71.0000 20° North 141 162 4,100 -211 Level KA90
Sat 02:54:39 PM 42.8667 -70.9833 20° North 143 165 3,700 -450 Descending KA90
Sat 02:55:39 PM 42.9000 -70.9667 20° North 145 167 3,200 -300 Descending KA90
Sat 02:56:39 PM 42.9333 -70.9667 360° North 138 159 3,100 -53 Descending KA90
Sat 02:57:33 PM 42.9667 -70.9500 20° North 126 145 3,100  Level KA90
Sat 02:58:33 PM 43.0000 -70.9500 360° North 122 140 3,100  Level KA90
Sat 02:59:27 PM 43.0333 -70.9667 340° North 118 136 3,100  Level KA90
Sat 03:00:33 PM 43.0667 -70.9667 360° North 119 137 3,100  Level KA90
Sat 03:01:33 PM 43.1000 -70.9833 340° North 120 138 3,100  Level KA90
Sat 03:02:33 PM 43.1333 -71.0000 340° North 120 138 3,100  Level KA90
Sat 03:03:27 PM 43.1500 -71.0167 324° Northwest 121 139 3,100  Level KA90
Sat 03:04:33 PM 43.1833 -71.0500 324° Northwest 121 139 3,100  Level KA90
Sat 03:05:33 PM 43.2167 -71.0333 20° North 123 142 3,100  Level KA90
Sat 03:06:33 PM 43.2167 -70.9833 90° East 121 139 3,100 -300 Level KA90
Sat 03:07:33 PM 43.2333 -70.9500 56° Northeast 123 142 2,500 -500 Descending KA90
Sat 03:08:33 PM 43.2000 -70.9167 144° Southeast 119 137 2,100 -300 Descending KA90
Sat 03:09:33 PM 43.1667 -70.9000 160° South 104 120 1,900 -250 Descending KA90
Sat 03:10:33 PM 43.1500 -70.8833 144° Southeast 91 105 1,600 -409 Descending KA90
Sat 03:11:45 PM 43.1333 -70.8667 144° Southeast 89 102 1,000 -476 Descending KA90
Sat 03:12:39 PM 43.1000 -70.8500 160° South 89 102 600 53 Descending KA90
Sat 03:13:39 PM 43.0833 -70.8333 144° Southeast 94 108 1,100 750 Climbing KA90
Sat 03:14:39 PM 43.0667 -70.8000 124° Southeast 103 119 2,100 952 Climbing KA90
Sat 03:15:45 PM 43.0500 -70.8333 236° Southwest 108 124 3,100 476 Climbing KA90
Sat 03:16:45 PM 43.0667 -70.8833 295° West 122 140 3,100  Level KA90
Sat 03:17:46 PM 43.1000 -70.9000 340° North 135 155 3,100  Level KA90
Sat 03:18:45 PM 43.1167 -70.9333 304° West 133 153 3,100  Level KA90
Sat 03:19:40 PM 43.1500 -70.9500 340° North 134 154 3,100  Level KA90
Sat 03:20:45 PM 43.1833 -71.0000 312° West 136 157 3,100  Level KA90
Sat 03:21:57 PM 43.2167 -71.0333 324° Northwest 134 154 3,100  Level KA90
Sat 03:22:46 PM 43.2333 -71.0167 36° Northeast 136 157 3,100 -56 Level KA90
Sat 03:23:45 PM 43.2500 -70.9833 56° Northeast 134 154 3,000 -275 Descending KA90
Sat 03:24:57 PM 43.2167 -70.9333 132° Southeast 127 146 2,500 -450 Descending KA90
Sat 03:25:45 PM 43.2000 -70.9167 144° Southeast 125 144 2,100 -291 Descending KA90
Sat 03:26:40 PM 43.1667 -70.9000 160° South 121 139 2,000 -333 Descending KA90
Sat 03:27:51 PM 43.1333 -70.8667 144° Southeast 91 105 1,400 -545 Descending KA90
Sat 03:28:52 PM 43.1167 -70.8500 144° Southeast 90 104 800 -495 Descending KA90
Sat 03:29:40 PM 43.1000 -70.8500 180° South 89 102 500 333 Descending KA90
Sat 03:30:40 PM 43.0833 -70.8167 124° Southeast 94 108 1,400 1,100 Climbing KA90
Sat 03:31:40 PM 43.0500 -70.8167 180° South 102 117 2,700 900 Climbing KA90
Sat 03:32:40 PM 43.0333 -70.8500 236° Southwest 121 139 3,200 198 Climbing KA90
Sat 03:33:41 PM 43.0000 -70.8833 216° Southwest 146 168 3,100 -48 Descending KA90
Sat 03:34:46 PM 42.9500 -70.9167 206° Southwest 135 155 3,100  Level KA90

Login

Don't have an account? Register now (free) for customized features, flight alerts, and more!